sensor_id;sensor_type;location;lat;lon;timestamp;temperature;humidity
29241;DHT22;16268;49.880;8.648;2022-10-31T00:00:28;13.90;99.90
29241;DHT22;16268;49.880;8.648;2022-10-31T00:02:54;13.90;99.90
29241;DHT22;16268;49.880;8.648;2022-10-31T00:05:22;13.90;99.90
29241;DHT22;16268;49.880;8.648;2022-10-31T00:07:51;13.90;99.90
29241;DHT22;16268;49.880;8.648;2022-10-31T00:10:16;13.90;99.90
29241;DHT22;16268;49.880;8.648;2022-10-31T00:12:44;13.80;99.90
29241;DHT22;16268;49.880;8.648;2022-10-31T00:15:10;13.80;99.90
29241;DHT22;16268;49.880;8.648;2022-10-31T00:17:36;13.70;99.90
29241;DHT22;16268;49.880;8.648;2022-10-31T00:20:02;13.70;99.90
29241;DHT22;16268;49.880;8.648;2022-10-31T00:22:28;13.60;99.90
29241;DHT22;16268;49.880;8.648;2022-10-31T00:24:53;13.60;99.90
29241;DHT22;16268;49.880;8.648;2022-10-31T00:27:19;13.50;99.90
29241;DHT22;16268;49.880;8.648;2022-10-31T00:29:45;13.50;99.90
29241;DHT22;16268;49.880;8.648;2022-10-31T00:32:10;13.50;99.90
29241;DHT22;16268;49.880;8.648;2022-10-31T00:34:36;13.50;99.90
29241;DHT22;16268;49.880;8.648;2022-10-31T00:37:01;13.50;99.90
29241;DHT22;16268;49.880;8.648;2022-10-31T00:39:27;13.50;99.90
29241;DHT22;16268;49.880;8.648;2022-10-31T00:41:53;13.40;99.90
29241;DHT22;16268;49.880;8.648;2022-10-31T00:44:19;13.40;99.90
29241;DHT22;16268;49.880;8.648;2022-10-31T00:46:44;13.40;99.90
29241;DHT22;16268;49.880;8.648;2022-10-31T00:49:10;13.40;99.90
29241;DHT22;16268;49.880;8.648;2022-10-31T00:51:37;13.30;99.90
29241;DHT22;16268;49.880;8.648;2022-10-31T00:54:02;13.40;99.90
29241;DHT22;16268;49.880;8.648;2022-10-31T00:56:28;13.40;99.90
29241;DHT22;16268;49.880;8.648;2022-10-31T00:58:54;13.30;99.90
29241;DHT22;16268;49.880;8.648;2022-10-31T01:01:19;13.20;99.90
29241;DHT22;16268;49.880;8.648;2022-10-31T01:03:45;13.20;99.90
29241;DHT22;16268;49.880;8.648;2022-10-31T01:06:12;13.20;99.90
29241;DHT22;16268;49.880;8.648;2022-10-31T01:08:39;13.20;99.90
29241;DHT22;16268;49.880;8.648;2022-10-31T01:11:20;13.30;99.90
29241;DHT22;16268;49.880;8.648;2022-10-31T01:13:46;13.20;99.90
29241;DHT22;16268;49.880;8.648;2022-10-31T01:16:15;13.20;99.90
29241;DHT22;16268;49.880;8.648;2022-10-31T01:18:41;13.20;99.90
29241;DHT22;16268;49.880;8.648;2022-10-31T01:21:19;13.20;99.90
29241;DHT22;16268;49.880;8.648;2022-10-31T01:23:45;13.20;99.90
29241;DHT22;16268;49.880;8.648;2022-10-31T01:26:14;13.20;99.90
29241;DHT22;16268;49.880;8.648;2022-10-31T01:28:55;13.10;99.90
29241;DHT22;16268;49.880;8.648;2022-10-31T01:31:23;13.00;99.90
29241;DHT22;16268;49.880;8.648;2022-10-31T01:33:49;13.00;99.90
29241;DHT22;16268;49.880;8.648;2022-10-31T01:36:21;13.00;99.90
29241;DHT22;16268;49.880;8.648;2022-10-31T01:38:48;12.90;99.90
29241;DHT22;16268;49.880;8.648;2022-10-31T01:41:17;12.90;99.90
29241;DHT22;16268;49.880;8.648;2022-10-31T01:43:48;12.90;99.90
29241;DHT22;16268;49.880;8.648;2022-10-31T01:46:17;12.90;99.90
29241;DHT22;16268;49.880;8.648;2022-10-31T01:48:52;12.80;99.90
29241;DHT22;16268;49.880;8.648;2022-10-31T01:51:21;12.80;99.90
29241;DHT22;16268;49.880;8.648;2022-10-31T01:53:48;12.80;99.90
29241;DHT22;16268;49.880;8.648;2022-10-31T01:56:17;12.80;99.90
29241;DHT22;16268;49.880;8.648;2022-10-31T01:58:45;12.70;99.90
29241;DHT22;16268;49.880;8.648;2022-10-31T02:01:13;12.70;99.90
29241;DHT22;16268;49.880;8.648;2022-10-31T02:03:40;12.70;99.90
29241;DHT22;16268;49.880;8.648;2022-10-31T02:06:09;12.60;99.90
29241;DHT22;16268;49.880;8.648;2022-10-31T02:08:37;12.50;99.90
29241;DHT22;16268;49.880;8.648;2022-10-31T02:11:05;12.60;99.90
29241;DHT22;16268;49.880;8.648;2022-10-31T02:13:34;12.50;99.90
29241;DHT22;16268;49.880;8.648;2022-10-31T02:16:00;12.40;99.90
29241;DHT22;16268;49.880;8.648;2022-10-31T02:18:28;12.50;99.90
29241;DHT22;16268;49.880;8.648;2022-10-31T02:41:16;12.40;99.90
29241;DHT22;16268;49.880;8.648;2022-10-31T02:44:05;12.50;99.90
29241;DHT22;16268;49.880;8.648;2022-10-31T02:46:53;12.60;99.90
29241;DHT22;16268;49.880;8.648;2022-10-31T02:50:19;12.60;99.90
29241;DHT22;16268;49.880;8.648;2022-10-31T02:52:24;12.70;99.90
29241;DHT22;16268;49.880;8.648;2022-10-31T02:54:51;12.80;99.90
29241;DHT22;16268;49.880;8.648;2022-10-31T02:57:20;12.80;99.90
29241;DHT22;16268;49.880;8.648;2022-10-31T02:59:50;12.80;99.90
29241;DHT22;16268;49.880;8.648;2022-10-31T03:07:45;12.90;99.90
29241;DHT22;16268;49.880;8.648;2022-10-31T03:10:21;12.90;99.90
29241;DHT22;16268;49.880;8.648;2022-10-31T03:15:44;12.80;99.90
29241;DHT22;16268;49.880;8.648;2022-10-31T03:21:14;12.80;99.90
29241;DHT22;16268;49.880;8.648;2022-10-31T03:23:44;12.70;99.90
29241;DHT22;16268;49.880;8.648;2022-10-31T03:26:11;12.70;99.90
29241;DHT22;16268;49.880;8.648;2022-10-31T03:28:57;12.70;99.90
29241;DHT22;16268;49.880;8.648;2022-10-31T03:31:29;12.60;99.90
29241;DHT22;16268;49.880;8.648;2022-10-31T03:34:00;12.60;99.90
29241;DHT22;16268;49.880;8.648;2022-10-31T03:36:27;12.60;99.90
29241;DHT22;16268;49.880;8.648;2022-10-31T03:38:56;12.60;99.90
29241;DHT22;16268;49.880;8.648;2022-10-31T03:41:25;12.60;99.90
29241;DHT22;16268;49.880;8.648;2022-10-31T03:44:01;12.60;99.90
29241;DHT22;16268;49.880;8.648;2022-10-31T03:46:31;12.50;99.90
29241;DHT22;16268;49.880;8.648;2022-10-31T03:48:57;12.50;99.90
29241;DHT22;16268;49.880;8.648;2022-10-31T03:51:36;12.60;99.90
29241;DHT22;16268;49.880;8.648;2022-10-31T03:54:13;12.50;99.90
29241;DHT22;16268;49.880;8.648;2022-10-31T03:56:54;12.50;99.90
29241;DHT22;16268;49.880;8.648;2022-10-31T03:59:29;12.50;99.90
29241;DHT22;16268;49.880;8.648;2022-10-31T04:02:00;12.60;99.90
29241;DHT22;16268;49.880;8.648;2022-10-31T04:04:29;12.60;99.90
29241;DHT22;16268;49.880;8.648;2022-10-31T04:06:56;12.60;99.90
29241;DHT22;16268;49.880;8.648;2022-10-31T04:09:25;12.60;99.90
29241;DHT22;16268;49.880;8.648;2022-10-31T04:11:53;12.60;99.90
29241;DHT22;16268;49.880;8.648;2022-10-31T04:14:22;12.60;99.90
29241;DHT22;16268;49.880;8.648;2022-10-31T04:16:48;12.60;99.90
29241;DHT22;16268;49.880;8.648;2022-10-31T04:19:14;12.60;99.90
29241;DHT22;16268;49.880;8.648;2022-10-31T04:21:40;12.70;99.90
29241;DHT22;16268;49.880;8.648;2022-10-31T04:24:09;12.80;99.90
29241;DHT22;16268;49.880;8.648;2022-10-31T04:26:34;12.70;99.90
29241;DHT22;16268;49.880;8.648;2022-10-31T04:29:00;12.70;99.90
29241;DHT22;16268;49.880;8.648;2022-10-31T04:31:25;12.70;99.90
29241;DHT22;16268;49.880;8.648;2022-10-31T04:33:51;12.70;99.90
29241;DHT22;16268;49.880;8.648;2022-10-31T04:36:16;12.70;99.90
29241;DHT22;16268;49.880;8.648;2022-10-31T04:38:42;12.70;99.90
29241;DHT22;16268;49.880;8.648;2022-10-31T04:41:08;12.60;99.90
29241;DHT22;16268;49.880;8.648;2022-10-31T04:43:33;12.60;99.90
29241;DHT22;16268;49.880;8.648;2022-10-31T04:45:59;12.60;99.90
29241;DHT22;16268;49.880;8.648;2022-10-31T04:48:24;12.60;99.90
29241;DHT22;16268;49.880;8.648;2022-10-31T04:50:50;12.60;99.90
29241;DHT22;16268;49.880;8.648;2022-10-31T04:53:16;12.70;99.90
29241;DHT22;16268;49.880;8.648;2022-10-31T04:55:41;12.80;99.90
29241;DHT22;16268;49.880;8.648;2022-10-31T04:58:07;12.70;99.90
29241;DHT22;16268;49.880;8.648;2022-10-31T05:00:32;12.70;99.90
29241;DHT22;16268;49.880;8.648;2022-10-31T05:02:58;12.70;99.90
29241;DHT22;16268;49.880;8.648;2022-10-31T05:05:29;12.70;99.90
29241;DHT22;16268;49.880;8.648;2022-10-31T05:07:55;12.70;99.90
29241;DHT22;16268;49.880;8.648;2022-10-31T05:10:23;12.70;99.90
29241;DHT22;16268;49.880;8.648;2022-10-31T05:12:52;12.70;99.90
29241;DHT22;16268;49.880;8.648;2022-10-31T05:15:19;12.80;99.90
29241;DHT22;16268;49.880;8.648;2022-10-31T05:17:46;12.90;99.90
29241;DHT22;16268;49.880;8.648;2022-10-31T05:20:13;12.90;99.90
29241;DHT22;16268;49.880;8.648;2022-10-31T05:22:46;12.80;99.90
29241;DHT22;16268;49.880;8.648;2022-10-31T05:25:12;12.70;99.90
29241;DHT22;16268;49.880;8.648;2022-10-31T05:27:41;12.60;99.90
29241;DHT22;16268;49.880;8.648;2022-10-31T05:30:07;12.50;99.90
29241;DHT22;16268;49.880;8.648;2022-10-31T05:32:45;12.40;99.90
29241;DHT22;16268;49.880;8.648;2022-10-31T05:35:14;12.30;99.90
29241;DHT22;16268;49.880;8.648;2022-10-31T05:37:40;12.30;99.90
29241;DHT22;16268;49.880;8.648;2022-10-31T05:40:07;12.20;99.90
29241;DHT22;16268;49.880;8.648;2022-10-31T05:42:33;12.20;99.90
29241;DHT22;16268;49.880;8.648;2022-10-31T05:44:59;12.20;99.90
29241;DHT22;16268;49.880;8.648;2022-10-31T05:47:25;12.10;99.90
29241;DHT22;16268;49.880;8.648;2022-10-31T05:49:50;12.20;99.90
29241;DHT22;16268;49.880;8.648;2022-10-31T05:52:16;12.20;99.90
29241;DHT22;16268;49.880;8.648;2022-10-31T05:54:42;12.10;99.90
29241;DHT22;16268;49.880;8.648;2022-10-31T05:57:07;12.10;99.90
29241;DHT22;16268;49.880;8.648;2022-10-31T05:59:33;12.10;99.90
29241;DHT22;16268;49.880;8.648;2022-10-31T06:01:59;12.10;99.90
29241;DHT22;16268;49.880;8.648;2022-10-31T06:04:24;12.10;99.90
29241;DHT22;16268;49.880;8.648;2022-10-31T06:06:50;12.10;99.90
29241;DHT22;16268;49.880;8.648;2022-10-31T06:09:15;12.20;99.90
29241;DHT22;16268;49.880;8.648;2022-10-31T06:11:41;12.10;99.90
29241;DHT22;16268;49.880;8.648;2022-10-31T06:14:06;12.20;99.90
29241;DHT22;16268;49.880;8.648;2022-10-31T06:16:32;12.10;99.90
29241;DHT22;16268;49.880;8.648;2022-10-31T06:18:57;12.20;99.90
29241;DHT22;16268;49.880;8.648;2022-10-31T06:21:23;12.20;99.90
29241;DHT22;16268;49.880;8.648;2022-10-31T06:23:49;12.20;99.90
29241;DHT22;16268;49.880;8.648;2022-10-31T06:26:14;12.10;99.90
29241;DHT22;16268;49.880;8.648;2022-10-31T06:28:40;12.00;99.90
29241;DHT22;16268;49.880;8.648;2022-10-31T06:31:06;12.10;99.90
29241;DHT22;16268;49.880;8.648;2022-10-31T06:33:32;12.00;99.90
29241;DHT22;16268;49.880;8.648;2022-10-31T06:35:58;12.10;99.90
29241;DHT22;16268;49.880;8.648;2022-10-31T06:38:25;12.20;99.90
29241;DHT22;16268;49.880;8.648;2022-10-31T06:40:52;12.30;99.90
29241;DHT22;16268;49.880;8.648;2022-10-31T06:43:17;12.40;99.90
29241;DHT22;16268;49.880;8.648;2022-10-31T06:45:43;12.40;99.90
29241;DHT22;16268;49.880;8.648;2022-10-31T06:48:08;12.50;99.90
29241;DHT22;16268;49.880;8.648;2022-10-31T06:50:34;12.50;99.90
29241;DHT22;16268;49.880;8.648;2022-10-31T06:52:59;12.70;99.90
29241;DHT22;16268;49.880;8.648;2022-10-31T06:55:26;12.80;99.90
29241;DHT22;16268;49.880;8.648;2022-10-31T06:57:56;12.90;99.90
29241;DHT22;16268;49.880;8.648;2022-10-31T07:00:23;12.90;99.90
29241;DHT22;16268;49.880;8.648;2022-10-31T07:02:56;12.90;99.90
29241;DHT22;16268;49.880;8.648;2022-10-31T07:05:22;12.90;99.90
29241;DHT22;16268;49.880;8.648;2022-10-31T07:07:51;13.00;99.90
29241;DHT22;16268;49.880;8.648;2022-10-31T07:10:16;13.00;99.90
29241;DHT22;16268;49.880;8.648;2022-10-31T07:12:42;13.00;99.90
29241;DHT22;16268;49.880;8.648;2022-10-31T07:15:08;13.00;99.90
29241;DHT22;16268;49.880;8.648;2022-10-31T07:17:33;13.20;99.90
29241;DHT22;16268;49.880;8.648;2022-10-31T07:19:59;13.20;99.90
29241;DHT22;16268;49.880;8.648;2022-10-31T07:22:24;13.30;99.90
29241;DHT22;16268;49.880;8.648;2022-10-31T07:24:50;13.20;99.90
29241;DHT22;16268;49.880;8.648;2022-10-31T07:27:15;13.30;99.90
29241;DHT22;16268;49.880;8.648;2022-10-31T07:29:41;13.30;99.90
29241;DHT22;16268;49.880;8.648;2022-10-31T07:32:06;13.20;99.90
29241;DHT22;16268;49.880;8.648;2022-10-31T07:34:32;13.20;99.90
29241;DHT22;16268;49.880;8.648;2022-10-31T07:36:58;13.20;99.90
29241;DHT22;16268;49.880;8.648;2022-10-31T07:39:23;13.20;99.90
29241;DHT22;16268;49.880;8.648;2022-10-31T07:41:49;13.10;99.90
29241;DHT22;16268;49.880;8.648;2022-10-31T07:44:14;13.10;99.90
29241;DHT22;16268;49.880;8.648;2022-10-31T07:46:40;13.00;99.90
29241;DHT22;16268;49.880;8.648;2022-10-31T07:49:05;12.90;99.90
29241;DHT22;16268;49.880;8.648;2022-10-31T07:51:32;12.90;99.90
29241;DHT22;16268;49.880;8.648;2022-10-31T07:53:57;12.80;99.90
29241;DHT22;16268;49.880;8.648;2022-10-31T07:56:23;12.80;99.90
29241;DHT22;16268;49.880;8.648;2022-10-31T07:58:49;12.70;99.90
29241;DHT22;16268;49.880;8.648;2022-10-31T08:01:14;12.60;99.90
29241;DHT22;16268;49.880;8.648;2022-10-31T08:03:40;12.70;99.90
29241;DHT22;16268;49.880;8.648;2022-10-31T08:06:05;12.60;99.90
29241;DHT22;16268;49.880;8.648;2022-10-31T08:08:31;12.60;99.90
29241;DHT22;16268;49.880;8.648;2022-10-31T08:10:58;12.60;99.90
29241;DHT22;16268;49.880;8.648;2022-10-31T08:13:23;12.70;99.90
29241;DHT22;16268;49.880;8.648;2022-10-31T08:15:49;12.80;99.90
29241;DHT22;16268;49.880;8.648;2022-10-31T08:18:17;12.90;99.90
29241;DHT22;16268;49.880;8.648;2022-10-31T08:20:43;13.00;99.90
29241;DHT22;16268;49.880;8.648;2022-10-31T08:23:10;13.00;99.90
29241;DHT22;16268;49.880;8.648;2022-10-31T08:25:37;13.10;99.90
29241;DHT22;16268;49.880;8.648;2022-10-31T08:28:03;13.10;99.90
29241;DHT22;16268;49.880;8.648;2022-10-31T08:30:31;13.10;99.90
29241;DHT22;16268;49.880;8.648;2022-10-31T08:33:06;13.20;99.90
29241;DHT22;16268;49.880;8.648;2022-10-31T08:35:34;13.30;99.90
29241;DHT22;16268;49.880;8.648;2022-10-31T08:38:00;13.40;99.90
29241;DHT22;16268;49.880;8.648;2022-10-31T08:40:28;13.50;99.90
29241;DHT22;16268;49.880;8.648;2022-10-31T08:43:00;13.60;99.90
29241;DHT22;16268;49.880;8.648;2022-10-31T08:45:27;13.80;99.90
29241;DHT22;16268;49.880;8.648;2022-10-31T08:47:57;13.90;99.90
29241;DHT22;16268;49.880;8.648;2022-10-31T08:50:23;14.00;99.90
29241;DHT22;16268;49.880;8.648;2022-10-31T08:52:48;14.10;99.90
29241;DHT22;16268;49.880;8.648;2022-10-31T08:55:14;14.30;99.90
29241;DHT22;16268;49.880;8.648;2022-10-31T08:57:39;14.30;99.90
29241;DHT22;16268;49.880;8.648;2022-10-31T09:00:05;14.30;99.90
29241;DHT22;16268;49.880;8.648;2022-10-31T09:02:31;14.40;99.90
29241;DHT22;16268;49.880;8.648;2022-10-31T09:04:57;14.60;99.90
29241;DHT22;16268;49.880;8.648;2022-10-31T09:07:22;14.80;99.90
29241;DHT22;16268;49.880;8.648;2022-10-31T09:09:48;14.80;99.90
29241;DHT22;16268;49.880;8.648;2022-10-31T09:12:13;15.00;99.90
29241;DHT22;16268;49.880;8.648;2022-10-31T09:14:39;15.10;99.90
29241;DHT22;16268;49.880;8.648;2022-10-31T09:17:05;14.90;99.90
29241;DHT22;16268;49.880;8.648;2022-10-31T09:19:30;15.00;99.90
29241;DHT22;16268;49.880;8.648;2022-10-31T09:21:56;15.00;99.90
29241;DHT22;16268;49.880;8.648;2022-10-31T09:24:21;14.90;99.90
29241;DHT22;16268;49.880;8.648;2022-10-31T09:26:47;15.00;99.90
29241;DHT22;16268;49.880;8.648;2022-10-31T09:29:13;14.90;99.90
29241;DHT22;16268;49.880;8.648;2022-10-31T09:31:38;15.20;99.90
29241;DHT22;16268;49.880;8.648;2022-10-31T09:34:04;15.10;99.90
29241;DHT22;16268;49.880;8.648;2022-10-31T09:36:29;15.20;99.90
29241;DHT22;16268;49.880;8.648;2022-10-31T09:38:55;15.30;99.90
29241;DHT22;16268;49.880;8.648;2022-10-31T09:47:16;16.10;99.90
29241;DHT22;16268;49.880;8.648;2022-10-31T09:49:56;16.10;99.90
29241;DHT22;16268;49.880;8.648;2022-10-31T09:52:29;16.30;99.90
29241;DHT22;16268;49.880;8.648;2022-10-31T09:55:05;16.40;99.90
29241;DHT22;16268;49.880;8.648;2022-10-31T09:57:36;16.60;99.90
29241;DHT22;16268;49.880;8.648;2022-10-31T10:00:07;16.70;99.90
29241;DHT22;16268;49.880;8.648;2022-10-31T10:02:37;16.40;99.90
29241;DHT22;16268;49.880;8.648;2022-10-31T10:05:10;16.60;99.90
29241;DHT22;16268;49.880;8.648;2022-10-31T10:10:58;17.00;99.90
29241;DHT22;16268;49.880;8.648;2022-10-31T10:22:30;17.00;99.90
29241;DHT22;16268;49.880;8.648;2022-10-31T10:25:15;17.20;99.90
29241;DHT22;16268;49.880;8.648;2022-10-31T10:30:52;17.40;99.90
29241;DHT22;16268;49.880;8.648;2022-10-31T10:33:22;17.40;99.90
29241;DHT22;16268;49.880;8.648;2022-10-31T10:35:57;17.70;99.90
29241;DHT22;16268;49.880;8.648;2022-10-31T10:39:00;17.80;99.90
29241;DHT22;16268;49.880;8.648;2022-10-31T10:41:31;17.80;99.90
29241;DHT22;16268;49.880;8.648;2022-10-31T10:43:57;17.80;99.90
29241;DHT22;16268;49.880;8.648;2022-10-31T10:46:43;17.90;99.90
29241;DHT22;16268;49.880;8.648;2022-10-31T10:49:50;17.90;99.90
29241;DHT22;16268;49.880;8.648;2022-10-31T11:00:24;17.80;99.90
29241;DHT22;16268;49.880;8.648;2022-10-31T11:02:51;18.00;99.90
29241;DHT22;16268;49.880;8.648;2022-10-31T11:05:53;18.00;99.90
29241;DHT22;16268;49.880;8.648;2022-10-31T11:08:27;18.20;99.90
29241;DHT22;16268;49.880;8.648;2022-10-31T11:11:03;18.40;99.90
29241;DHT22;16268;49.880;8.648;2022-10-31T11:13:30;18.50;99.90
29241;DHT22;16268;49.880;8.648;2022-10-31T11:16:09;18.50;99.90
29241;DHT22;16268;49.880;8.648;2022-10-31T11:18:47;18.70;99.90
29241;DHT22;16268;49.880;8.648;2022-10-31T11:21:27;18.80;99.90
29241;DHT22;16268;49.880;8.648;2022-10-31T11:26:38;19.00;99.90
29241;DHT22;16268;49.880;8.648;2022-10-31T11:29:05;19.10;99.90
29241;DHT22;16268;49.880;8.648;2022-10-31T11:31:36;19.10;99.90
29241;DHT22;16268;49.880;8.648;2022-10-31T11:34:05;19.10;99.90
29241;DHT22;16268;49.880;8.648;2022-10-31T11:36:35;19.00;99.90
29241;DHT22;16268;49.880;8.648;2022-10-31T11:39:05;18.70;99.90
29241;DHT22;16268;49.880;8.648;2022-10-31T11:41:41;18.70;99.90
29241;DHT22;16268;49.880;8.648;2022-10-31T11:44:16;18.50;99.90
29241;DHT22;16268;49.880;8.648;2022-10-31T11:46:55;18.40;99.90
29241;DHT22;16268;49.880;8.648;2022-10-31T11:49:34;18.50;99.90
29241;DHT22;16268;49.880;8.648;2022-10-31T11:52:06;18.70;99.90
29241;DHT22;16268;49.880;8.648;2022-10-31T11:54:49;18.80;99.90
29241;DHT22;16268;49.880;8.648;2022-10-31T11:57:52;19.10;99.90
29241;DHT22;16268;49.880;8.648;2022-10-31T12:00:30;19.10;99.90
29241;DHT22;16268;49.880;8.648;2022-10-31T12:05:42;19.10;99.90
29241;DHT22;16268;49.880;8.648;2022-10-31T12:08:11;19.00;99.90
29241;DHT22;16268;49.880;8.648;2022-10-31T12:13:34;19.10;99.90
29241;DHT22;16268;49.880;8.648;2022-10-31T12:16:09;19.30;99.90
29241;DHT22;16268;49.880;8.648;2022-10-31T12:18:53;19.50;99.90
29241;DHT22;16268;49.880;8.648;2022-10-31T12:21:40;19.70;99.90
29241;DHT22;16268;49.880;8.648;2022-10-31T12:24:32;19.70;99.90
29241;DHT22;16268;49.880;8.648;2022-10-31T12:27:23;19.70;99.90
29241;DHT22;16268;49.880;8.648;2022-10-31T12:33:03;20.20;99.90
29241;DHT22;16268;49.880;8.648;2022-10-31T12:41:08;20.00;99.90
29241;DHT22;16268;49.880;8.648;2022-10-31T12:43:45;19.80;99.90
29241;DHT22;16268;49.880;8.648;2022-10-31T12:46:25;19.80;99.90
29241;DHT22;16268;49.880;8.648;2022-10-31T12:49:07;20.00;99.90
29241;DHT22;16268;49.880;8.648;2022-10-31T13:00:22;19.60;99.90
29241;DHT22;16268;49.880;8.648;2022-10-31T13:02:59;19.70;99.90
29241;DHT22;16268;49.880;8.648;2022-10-31T13:05:33;19.70;99.90
29241;DHT22;16268;49.880;8.648;2022-10-31T13:08:22;19.60;99.90
29241;DHT22;16268;49.880;8.648;2022-10-31T13:10:55;19.70;99.90
29241;DHT22;16268;49.880;8.648;2022-10-31T13:13:47;19.60;99.90
29241;DHT22;16268;49.880;8.648;2022-10-31T13:16:43;19.40;99.90
29241;DHT22;16268;49.880;8.648;2022-10-31T13:19:16;19.40;99.90
29241;DHT22;16268;49.880;8.648;2022-10-31T13:24:41;19.30;99.90
29241;DHT22;16268;49.880;8.648;2022-10-31T13:27:17;19.30;99.90
29241;DHT22;16268;49.880;8.648;2022-10-31T13:30:00;19.40;99.90
29241;DHT22;16268;49.880;8.648;2022-10-31T13:32:30;19.40;99.90
29241;DHT22;16268;49.880;8.648;2022-10-31T13:35:02;19.30;99.90
29241;DHT22;16268;49.880;8.648;2022-10-31T13:37:37;19.40;99.90
29241;DHT22;16268;49.880;8.648;2022-10-31T13:45:20;19.50;99.90
29241;DHT22;16268;49.880;8.648;2022-10-31T13:50:25;19.70;99.90
29241;DHT22;16268;49.880;8.648;2022-10-31T13:52:51;19.70;99.90
29241;DHT22;16268;49.880;8.648;2022-10-31T13:55:37;19.70;99.90
29241;DHT22;16268;49.880;8.648;2022-10-31T13:58:26;19.70;99.90
29241;DHT22;16268;49.880;8.648;2022-10-31T14:01:20;19.50;99.90
29241;DHT22;16268;49.880;8.648;2022-10-31T14:03:56;19.40;99.90
29241;DHT22;16268;49.880;8.648;2022-10-31T14:06:33;19.30;99.90
29241;DHT22;16268;49.880;8.648;2022-10-31T14:08:59;19.10;99.90
29241;DHT22;16268;49.880;8.648;2022-10-31T14:11:27;19.00;99.90
29241;DHT22;16268;49.880;8.648;2022-10-31T14:13:55;19.00;99.90
29241;DHT22;16268;49.880;8.648;2022-10-31T14:16:28;18.90;99.90
29241;DHT22;16268;49.880;8.648;2022-10-31T14:19:04;18.80;99.90
29241;DHT22;16268;49.880;8.648;2022-10-31T14:21:36;18.80;99.90
29241;DHT22;16268;49.880;8.648;2022-10-31T14:26:54;18.70;99.90
29241;DHT22;16268;49.880;8.648;2022-10-31T14:32:07;18.80;99.90
29241;DHT22;16268;49.880;8.648;2022-10-31T14:34:55;19.10;99.90
29241;DHT22;16268;49.880;8.648;2022-10-31T14:43:41;19.70;99.90
29241;DHT22;16268;49.880;8.648;2022-10-31T14:46:47;19.70;99.90
29241;DHT22;16268;49.880;8.648;2022-10-31T14:49:25;19.60;99.90
29241;DHT22;16268;49.880;8.648;2022-10-31T14:51:55;19.60;99.90
29241;DHT22;16268;49.880;8.648;2022-10-31T14:54:30;19.60;99.90
29241;DHT22;16268;49.880;8.648;2022-10-31T14:57:06;19.50;99.90
29241;DHT22;16268;49.880;8.648;2022-10-31T14:59:37;19.40;99.90
29241;DHT22;16268;49.880;8.648;2022-10-31T15:02:26;19.30;99.90
29241;DHT22;16268;49.880;8.648;2022-10-31T15:04:54;19.20;99.90
29241;DHT22;16268;49.880;8.648;2022-10-31T15:07:28;19.10;99.90
29241;DHT22;16268;49.880;8.648;2022-10-31T15:09:59;18.90;99.90
29241;DHT22;16268;49.880;8.648;2022-10-31T15:12:32;18.70;99.90
29241;DHT22;16268;49.880;8.648;2022-10-31T15:15:11;18.60;99.90
29241;DHT22;16268;49.880;8.648;2022-10-31T15:17:43;18.50;99.90
29241;DHT22;16268;49.880;8.648;2022-10-31T15:20:11;18.40;99.90
29241;DHT22;16268;49.880;8.648;2022-10-31T15:22:37;18.30;99.90
29241;DHT22;16268;49.880;8.648;2022-10-31T15:25:04;18.10;99.90
29241;DHT22;16268;49.880;8.648;2022-10-31T15:27:32;18.00;99.90
29241;DHT22;16268;49.880;8.648;2022-10-31T15:29:58;17.90;99.90
29241;DHT22;16268;49.880;8.648;2022-10-31T15:32:26;17.90;99.90
29241;DHT22;16268;49.880;8.648;2022-10-31T15:34:53;17.80;99.90
29241;DHT22;16268;49.880;8.648;2022-10-31T15:37:20;17.80;99.90
29241;DHT22;16268;49.880;8.648;2022-10-31T15:39:48;17.80;99.90
29241;DHT22;16268;49.880;8.648;2022-10-31T15:47:46;17.60;99.90
29241;DHT22;16268;49.880;8.648;2022-10-31T15:50:40;17.50;99.90
29241;DHT22;16268;49.880;8.648;2022-10-31T15:53:19;17.40;99.90
29241;DHT22;16268;49.880;8.648;2022-10-31T15:55:57;17.50;99.90
29241;DHT22;16268;49.880;8.648;2022-10-31T15:58:24;17.50;99.90
29241;DHT22;16268;49.880;8.648;2022-10-31T16:01:05;17.50;99.90
29241;DHT22;16268;49.880;8.648;2022-10-31T16:03:31;17.50;99.90
29241;DHT22;16268;49.880;8.648;2022-10-31T16:05:59;17.30;99.90
29241;DHT22;16268;49.880;8.648;2022-10-31T16:08:33;17.30;99.90
29241;DHT22;16268;49.880;8.648;2022-10-31T16:13:37;17.30;99.90
29241;DHT22;16268;49.880;8.648;2022-10-31T16:16:11;17.20;99.90
29241;DHT22;16268;49.880;8.648;2022-10-31T16:18:38;17.20;99.90
29241;DHT22;16268;49.880;8.648;2022-10-31T16:21:05;17.10;99.90
29241;DHT22;16268;49.880;8.648;2022-10-31T16:23:31;17.10;99.90
29241;DHT22;16268;49.880;8.648;2022-10-31T16:25:57;17.00;99.90
29241;DHT22;16268;49.880;8.648;2022-10-31T16:28:27;16.90;99.90
29241;DHT22;16268;49.880;8.648;2022-10-31T16:30:54;16.90;99.90
29241;DHT22;16268;49.880;8.648;2022-10-31T16:33:34;16.90;99.90
29241;DHT22;16268;49.880;8.648;2022-10-31T16:38:56;16.90;99.90
29241;DHT22;16268;49.880;8.648;2022-10-31T16:41:23;16.80;99.90
29241;DHT22;16268;49.880;8.648;2022-10-31T16:43:49;16.70;99.90
29241;DHT22;16268;49.880;8.648;2022-10-31T16:46:20;16.70;99.90
29241;DHT22;16268;49.880;8.648;2022-10-31T16:48:47;16.60;99.90
29241;DHT22;16268;49.880;8.648;2022-10-31T16:51:12;16.60;99.90
29241;DHT22;16268;49.880;8.648;2022-10-31T16:53:38;16.60;99.90
29241;DHT22;16268;49.880;8.648;2022-10-31T16:56:04;16.50;99.90
29241;DHT22;16268;49.880;8.648;2022-10-31T16:58:32;16.50;99.90
29241;DHT22;16268;49.880;8.648;2022-10-31T17:00:59;16.40;99.90
29241;DHT22;16268;49.880;8.648;2022-10-31T17:03:25;16.40;99.90
29241;DHT22;16268;49.880;8.648;2022-10-31T17:05:51;16.50;99.90
29241;DHT22;16268;49.880;8.648;2022-10-31T17:08:17;16.40;99.90
29241;DHT22;16268;49.880;8.648;2022-10-31T17:10:44;16.40;99.90
29241;DHT22;16268;49.880;8.648;2022-10-31T17:13:16;16.50;99.90
29241;DHT22;16268;49.880;8.648;2022-10-31T17:15:44;16.50;99.90
29241;DHT22;16268;49.880;8.648;2022-10-31T17:18:12;16.50;99.90
29241;DHT22;16268;49.880;8.648;2022-10-31T17:20:38;16.50;99.90
29241;DHT22;16268;49.880;8.648;2022-10-31T17:23:03;16.50;99.90
29241;DHT22;16268;49.880;8.648;2022-10-31T17:25:30;16.50;99.90
29241;DHT22;16268;49.880;8.648;2022-10-31T17:27:56;16.50;99.90
29241;DHT22;16268;49.880;8.648;2022-10-31T17:30:23;16.50;99.90
29241;DHT22;16268;49.880;8.648;2022-10-31T17:32:49;16.50;99.90
29241;DHT22;16268;49.880;8.648;2022-10-31T17:35:16;16.50;99.90
29241;DHT22;16268;49.880;8.648;2022-10-31T17:37:43;16.50;99.90
29241;DHT22;16268;49.880;8.648;2022-10-31T17:40:10;16.50;99.90
29241;DHT22;16268;49.880;8.648;2022-10-31T17:42:37;16.40;99.90
29241;DHT22;16268;49.880;8.648;2022-10-31T17:45:04;16.40;99.90
29241;DHT22;16268;49.880;8.648;2022-10-31T17:47:32;16.40;99.90